Main page
METAR-TAF:

METAR-TAF

Airports :

Rahim Yar Khan, Pakistan

Shaikh Zayed International Airport

latitude: 28-23-02N, longitude: 70-16-47E, elevation: 83 m

METAR: missing

Time: 15:19 (10:19 UTC)

Forecast

The report was made 6 hours and 34 minutes ago, at 03:45 UTC
Forecast valid from 21 at 06 UTC to 21 at 24 UTC
Wind 10 kt from the East
Visibility: 6000 m
Scattered clouds at a height of 12000 ft
From 21 at 1500 UTC
Wind 5 kt from the Southeast
Visibility: 4000 m
Few clouds at a height of 12000 ft
smoke

TAF: OPRK 210345Z 2106/2124 09010KT 6000 SCT120 TX40/2110Z FM211500 13005KT 4000 FU FEW120

Weather observations and forecasts of more than 4000 airports (METAR and TAF reports).

The available stations are represented by yellow and red dots on the map.

Hover mouse over dot to see the name of the station.

Then click to see weather observations and forecasts.

To change the map : click on the green buttons with a black cross to zoom in, on the green button with a dash to zoom out, or on the green arrows for adjacent maps.


METAR-TAF: